sensor_id;sensor_type;location;lat;lon;timestamp;temperature;humidity
14182;DHT22;7171;50.936;6.764;2022-10-31T00:01:20;16.70;99.90
14182;DHT22;7171;50.936;6.764;2022-10-31T00:03:48;16.70;99.90
14182;DHT22;7171;50.936;6.764;2022-10-31T00:06:15;16.70;99.90
14182;DHT22;7171;50.936;6.764;2022-10-31T00:08:43;16.70;99.90
14182;DHT22;7171;50.936;6.764;2022-10-31T00:11:10;16.70;99.90
14182;DHT22;7171;50.936;6.764;2022-10-31T00:13:37;16.70;99.90
14182;DHT22;7171;50.936;6.764;2022-10-31T00:16:13;16.70;99.90
14182;DHT22;7171;50.936;6.764;2022-10-31T00:18:40;16.70;99.90
14182;DHT22;7171;50.936;6.764;2022-10-31T00:21:06;16.70;99.90
14182;DHT22;7171;50.936;6.764;2022-10-31T00:23:33;16.70;99.90
14182;DHT22;7171;50.936;6.764;2022-10-31T00:26:00;16.70;99.90
14182;DHT22;7171;50.936;6.764;2022-10-31T00:28:28;16.70;99.90
14182;DHT22;7171;50.936;6.764;2022-10-31T00:30:58;16.80;99.90
14182;DHT22;7171;50.936;6.764;2022-10-31T00:33:27;16.70;99.90
14182;DHT22;7171;50.936;6.764;2022-10-31T00:35:54;16.70;99.90
14182;DHT22;7171;50.936;6.764;2022-10-31T00:38:21;16.70;99.90
14182;DHT22;7171;50.936;6.764;2022-10-31T00:40:48;16.70;99.90
14182;DHT22;7171;50.936;6.764;2022-10-31T00:43:14;16.70;99.90
14182;DHT22;7171;50.936;6.764;2022-10-31T00:45:41;16.60;99.90
14182;DHT22;7171;50.936;6.764;2022-10-31T00:48:08;16.50;99.90
14182;DHT22;7171;50.936;6.764;2022-10-31T00:50:37;16.50;99.90
14182;DHT22;7171;50.936;6.764;2022-10-31T00:53:04;16.50;99.90
14182;DHT22;7171;50.936;6.764;2022-10-31T00:55:31;16.40;99.90
14182;DHT22;7171;50.936;6.764;2022-10-31T00:57:58;16.40;99.90
14182;DHT22;7171;50.936;6.764;2022-10-31T01:00:24;16.40;99.90
14182;DHT22;7171;50.936;6.764;2022-10-31T01:02:51;16.40;99.90
14182;DHT22;7171;50.936;6.764;2022-10-31T01:05:18;16.40;99.90
14182;DHT22;7171;50.936;6.764;2022-10-31T01:07:46;16.30;99.90
14182;DHT22;7171;50.936;6.764;2022-10-31T01:10:13;16.30;99.90
14182;DHT22;7171;50.936;6.764;2022-10-31T01:12:41;16.30;99.90
14182;DHT22;7171;50.936;6.764;2022-10-31T01:15:09;16.20;99.90
14182;DHT22;7171;50.936;6.764;2022-10-31T01:17:36;16.20;99.90
14182;DHT22;7171;50.936;6.764;2022-10-31T01:20:05;16.20;99.90
14182;DHT22;7171;50.936;6.764;2022-10-31T01:22:32;16.20;99.90
14182;DHT22;7171;50.936;6.764;2022-10-31T01:25:00;16.20;99.90
14182;DHT22;7171;50.936;6.764;2022-10-31T01:27:27;16.20;99.90
14182;DHT22;7171;50.936;6.764;2022-10-31T01:29:54;16.20;99.90
14182;DHT22;7171;50.936;6.764;2022-10-31T01:32:20;16.20;99.90
14182;DHT22;7171;50.936;6.764;2022-10-31T01:34:47;16.10;99.90
14182;DHT22;7171;50.936;6.764;2022-10-31T01:37:14;16.10;99.90
14182;DHT22;7171;50.936;6.764;2022-10-31T01:39:40;16.10;99.90
14182;DHT22;7171;50.936;6.764;2022-10-31T01:42:15;16.10;99.90
14182;DHT22;7171;50.936;6.764;2022-10-31T01:44:53;16.10;99.90
14182;DHT22;7171;50.936;6.764;2022-10-31T01:47:28;16.10;99.90
14182;DHT22;7171;50.936;6.764;2022-10-31T01:49:57;16.10;99.90
14182;DHT22;7171;50.936;6.764;2022-10-31T01:52:29;16.10;99.90
14182;DHT22;7171;50.936;6.764;2022-10-31T01:54:59;16.10;99.90
14182;DHT22;7171;50.936;6.764;2022-10-31T01:57:29;16.10;99.90
14182;DHT22;7171;50.936;6.764;2022-10-31T02:00:01;16.10;99.90
14182;DHT22;7171;50.936;6.764;2022-10-31T02:02:30;16.10;99.90
14182;DHT22;7171;50.936;6.764;2022-10-31T02:05:00;16.00;99.90
14182;DHT22;7171;50.936;6.764;2022-10-31T02:07:32;16.00;99.90
14182;DHT22;7171;50.936;6.764;2022-10-31T02:10:00;16.00;99.90
14182;DHT22;7171;50.936;6.764;2022-10-31T02:12:30;15.90;99.90
14182;DHT22;7171;50.936;6.764;2022-10-31T02:14:58;15.90;99.90
14182;DHT22;7171;50.936;6.764;2022-10-31T02:17:26;15.80;99.90
14182;DHT22;7171;50.936;6.764;2022-10-31T02:19:59;15.80;99.90
14182;DHT22;7171;50.936;6.764;2022-10-31T02:22:33;15.80;99.90
14182;DHT22;7171;50.936;6.764;2022-10-31T02:25:18;15.80;99.90
14182;DHT22;7171;50.936;6.764;2022-10-31T02:28:10;15.70;99.90
14182;DHT22;7171;50.936;6.764;2022-10-31T02:30:55;15.70;99.90
14182;DHT22;7171;50.936;6.764;2022-10-31T02:33:27;15.60;99.90
14182;DHT22;7171;50.936;6.764;2022-10-31T02:36:02;15.60;99.90
14182;DHT22;7171;50.936;6.764;2022-10-31T02:38:39;15.50;99.90
14182;DHT22;7171;50.936;6.764;2022-10-31T02:41:15;15.50;99.90
14182;DHT22;7171;50.936;6.764;2022-10-31T02:43:48;15.60;99.90
14182;DHT22;7171;50.936;6.764;2022-10-31T02:46:24;15.50;99.90
14182;DHT22;7171;50.936;6.764;2022-10-31T02:48:54;15.60;99.90
14182;DHT22;7171;50.936;6.764;2022-10-31T02:51:23;15.40;99.90
14182;DHT22;7171;50.936;6.764;2022-10-31T02:53:49;15.50;99.90
14182;DHT22;7171;50.936;6.764;2022-10-31T02:56:17;15.40;99.90
14182;DHT22;7171;50.936;6.764;2022-10-31T02:58:48;15.40;99.90
14182;DHT22;7171;50.936;6.764;2022-10-31T03:01:47;15.40;99.90
14182;DHT22;7171;50.936;6.764;2022-10-31T03:04:41;15.40;99.90
14182;DHT22;7171;50.936;6.764;2022-10-31T03:07:18;15.40;99.90
14182;DHT22;7171;50.936;6.764;2022-10-31T03:09:54;15.30;99.90
14182;DHT22;7171;50.936;6.764;2022-10-31T03:12:28;15.40;99.90
14182;DHT22;7171;50.936;6.764;2022-10-31T03:15:06;15.30;99.90
14182;DHT22;7171;50.936;6.764;2022-10-31T03:17:44;15.20;99.90
14182;DHT22;7171;50.936;6.764;2022-10-31T03:20:16;15.20;99.90
14182;DHT22;7171;50.936;6.764;2022-10-31T03:22:46;15.30;99.90
14182;DHT22;7171;50.936;6.764;2022-10-31T03:25:13;15.40;99.90
14182;DHT22;7171;50.936;6.764;2022-10-31T03:27:42;15.40;99.90
14182;DHT22;7171;50.936;6.764;2022-10-31T03:30:10;15.40;99.90
14182;DHT22;7171;50.936;6.764;2022-10-31T03:32:40;15.10;99.90
14182;DHT22;7171;50.936;6.764;2022-10-31T03:35:10;14.70;99.90
14182;DHT22;7171;50.936;6.764;2022-10-31T03:37:42;14.90;99.90
14182;DHT22;7171;50.936;6.764;2022-10-31T03:40:10;14.90;99.90
14182;DHT22;7171;50.936;6.764;2022-10-31T03:42:41;14.90;99.90
14182;DHT22;7171;50.936;6.764;2022-10-31T03:45:11;14.90;99.90
14182;DHT22;7171;50.936;6.764;2022-10-31T03:47:41;14.80;99.90
14182;DHT22;7171;50.936;6.764;2022-10-31T03:50:10;14.80;99.90
14182;DHT22;7171;50.936;6.764;2022-10-31T03:52:42;14.90;99.90
14182;DHT22;7171;50.936;6.764;2022-10-31T03:55:17;14.80;99.90
14182;DHT22;7171;50.936;6.764;2022-10-31T03:57:48;14.90;99.90
14182;DHT22;7171;50.936;6.764;2022-10-31T04:00:17;15.00;99.90
14182;DHT22;7171;50.936;6.764;2022-10-31T04:02:50;15.00;99.90
14182;DHT22;7171;50.936;6.764;2022-10-31T04:05:19;15.00;99.90
14182;DHT22;7171;50.936;6.764;2022-10-31T04:07:50;15.00;99.90
14182;DHT22;7171;50.936;6.764;2022-10-31T04:10:19;15.00;99.90
14182;DHT22;7171;50.936;6.764;2022-10-31T04:12:49;15.00;99.90
14182;DHT22;7171;50.936;6.764;2022-10-31T04:15:19;15.00;99.90
14182;DHT22;7171;50.936;6.764;2022-10-31T04:17:50;15.00;99.90
14182;DHT22;7171;50.936;6.764;2022-10-31T04:20:28;15.00;99.90
14182;DHT22;7171;50.936;6.764;2022-10-31T04:22:55;15.00;99.90
14182;DHT22;7171;50.936;6.764;2022-10-31T04:25:22;15.00;99.90
14182;DHT22;7171;50.936;6.764;2022-10-31T04:27:48;15.20;99.90
14182;DHT22;7171;50.936;6.764;2022-10-31T04:30:15;15.00;99.90
14182;DHT22;7171;50.936;6.764;2022-10-31T04:32:42;15.00;99.90
14182;DHT22;7171;50.936;6.764;2022-10-31T04:35:10;15.10;99.90
14182;DHT22;7171;50.936;6.764;2022-10-31T04:37:37;15.10;99.90
14182;DHT22;7171;50.936;6.764;2022-10-31T04:40:04;15.20;99.90
14182;DHT22;7171;50.936;6.764;2022-10-31T04:42:31;15.10;99.90
14182;DHT22;7171;50.936;6.764;2022-10-31T04:44:58;15.10;99.90
14182;DHT22;7171;50.936;6.764;2022-10-31T04:47:24;15.10;99.90
14182;DHT22;7171;50.936;6.764;2022-10-31T04:49:51;15.10;99.90
14182;DHT22;7171;50.936;6.764;2022-10-31T04:52:19;15.10;99.90
14182;DHT22;7171;50.936;6.764;2022-10-31T04:54:46;15.10;99.90
14182;DHT22;7171;50.936;6.764;2022-10-31T04:57:12;15.10;99.90
14182;DHT22;7171;50.936;6.764;2022-10-31T04:59:39;15.10;99.90
14182;DHT22;7171;50.936;6.764;2022-10-31T05:02:06;15.20;99.90
14182;DHT22;7171;50.936;6.764;2022-10-31T05:04:32;15.10;99.90
14182;DHT22;7171;50.936;6.764;2022-10-31T05:06:59;15.10;99.90
14182;DHT22;7171;50.936;6.764;2022-10-31T05:09:27;15.10;99.90
14182;DHT22;7171;50.936;6.764;2022-10-31T05:11:54;15.10;99.90
14182;DHT22;7171;50.936;6.764;2022-10-31T05:14:20;15.10;99.90
14182;DHT22;7171;50.936;6.764;2022-10-31T05:16:47;15.00;99.90
14182;DHT22;7171;50.936;6.764;2022-10-31T05:19:13;15.00;99.90
14182;DHT22;7171;50.936;6.764;2022-10-31T05:21:40;15.10;99.90
14182;DHT22;7171;50.936;6.764;2022-10-31T05:24:07;15.00;99.90
14182;DHT22;7171;50.936;6.764;2022-10-31T05:26:35;15.00;99.90
14182;DHT22;7171;50.936;6.764;2022-10-31T05:29:02;15.00;99.90
14182;DHT22;7171;50.936;6.764;2022-10-31T05:31:29;15.00;99.90
14182;DHT22;7171;50.936;6.764;2022-10-31T05:33:55;15.00;99.90
14182;DHT22;7171;50.936;6.764;2022-10-31T05:36:22;15.20;99.90
14182;DHT22;7171;50.936;6.764;2022-10-31T05:38:49;15.20;99.90
14182;DHT22;7171;50.936;6.764;2022-10-31T05:41:15;15.20;99.90
14182;DHT22;7171;50.936;6.764;2022-10-31T05:43:43;15.30;99.90
14182;DHT22;7171;50.936;6.764;2022-10-31T05:46:11;15.40;99.90
14182;DHT22;7171;50.936;6.764;2022-10-31T05:48:37;15.50;99.90
14182;DHT22;7171;50.936;6.764;2022-10-31T05:51:04;15.50;99.90
14182;DHT22;7171;50.936;6.764;2022-10-31T05:53:31;15.60;99.90
14182;DHT22;7171;50.936;6.764;2022-10-31T05:55:58;15.70;99.90
14182;DHT22;7171;50.936;6.764;2022-10-31T05:58:24;15.60;99.90
14182;DHT22;7171;50.936;6.764;2022-10-31T06:00:52;15.60;99.90
14182;DHT22;7171;50.936;6.764;2022-10-31T06:03:19;15.60;99.90
14182;DHT22;7171;50.936;6.764;2022-10-31T06:05:46;15.60;99.90
14182;DHT22;7171;50.936;6.764;2022-10-31T06:08:12;15.60;99.90
14182;DHT22;7171;50.936;6.764;2022-10-31T06:10:39;15.50;99.90
14182;DHT22;7171;50.936;6.764;2022-10-31T06:13:06;15.50;99.90
14182;DHT22;7171;50.936;6.764;2022-10-31T06:15:33;15.50;99.90
14182;DHT22;7171;50.936;6.764;2022-10-31T06:18:03;15.50;99.90
14182;DHT22;7171;50.936;6.764;2022-10-31T06:20:31;15.50;99.90
14182;DHT22;7171;50.936;6.764;2022-10-31T06:22:57;15.70;99.90
14182;DHT22;7171;50.936;6.764;2022-10-31T06:25:24;15.50;99.90
14182;DHT22;7171;50.936;6.764;2022-10-31T06:27:51;15.50;99.90
14182;DHT22;7171;50.936;6.764;2022-10-31T06:30:18;15.50;99.90
14182;DHT22;7171;50.936;6.764;2022-10-31T06:32:44;15.50;99.90
14182;DHT22;7171;50.936;6.764;2022-10-31T06:35:13;15.50;99.90
14182;DHT22;7171;50.936;6.764;2022-10-31T06:37:39;15.50;99.90
14182;DHT22;7171;50.936;6.764;2022-10-31T06:40:07;15.40;99.90
14182;DHT22;7171;50.936;6.764;2022-10-31T06:42:33;15.50;99.90
14182;DHT22;7171;50.936;6.764;2022-10-31T06:45:00;15.40;99.90
14182;DHT22;7171;50.936;6.764;2022-10-31T06:47:27;15.40;99.90
14182;DHT22;7171;50.936;6.764;2022-10-31T06:49:53;15.30;99.90
14182;DHT22;7171;50.936;6.764;2022-10-31T06:52:21;15.40;99.90
14182;DHT22;7171;50.936;6.764;2022-10-31T06:54:49;15.30;99.90
14182;DHT22;7171;50.936;6.764;2022-10-31T06:57:15;15.40;99.90
14182;DHT22;7171;50.936;6.764;2022-10-31T06:59:42;15.30;99.90
14182;DHT22;7171;50.936;6.764;2022-10-31T07:02:09;15.30;99.90
14182;DHT22;7171;50.936;6.764;2022-10-31T07:04:36;15.30;99.90
14182;DHT22;7171;50.936;6.764;2022-10-31T07:07:03;15.20;99.90
14182;DHT22;7171;50.936;6.764;2022-10-31T07:09:31;15.30;99.90
14182;DHT22;7171;50.936;6.764;2022-10-31T07:11:58;15.20;99.90
14182;DHT22;7171;50.936;6.764;2022-10-31T07:14:24;15.30;99.90
14182;DHT22;7171;50.936;6.764;2022-10-31T07:16:51;15.30;99.90
14182;DHT22;7171;50.936;6.764;2022-10-31T07:19:18;15.30;99.90
14182;DHT22;7171;50.936;6.764;2022-10-31T07:21:45;15.30;99.90
14182;DHT22;7171;50.936;6.764;2022-10-31T07:24:11;15.40;99.90
14182;DHT22;7171;50.936;6.764;2022-10-31T07:26:39;15.30;99.90
14182;DHT22;7171;50.936;6.764;2022-10-31T07:29:07;15.30;99.90
14182;DHT22;7171;50.936;6.764;2022-10-31T07:31:34;15.30;99.90
14182;DHT22;7171;50.936;6.764;2022-10-31T07:34:01;15.30;99.90
14182;DHT22;7171;50.936;6.764;2022-10-31T07:36:27;15.40;99.90
14182;DHT22;7171;50.936;6.764;2022-10-31T07:38:54;15.40;99.90
14182;DHT22;7171;50.936;6.764;2022-10-31T07:41:21;15.40;99.90
14182;DHT22;7171;50.936;6.764;2022-10-31T07:43:49;15.50;99.90
14182;DHT22;7171;50.936;6.764;2022-10-31T07:46:16;15.50;99.90
14182;DHT22;7171;50.936;6.764;2022-10-31T07:48:42;15.40;99.90
14182;DHT22;7171;50.936;6.764;2022-10-31T07:51:09;15.50;99.90
14182;DHT22;7171;50.936;6.764;2022-10-31T07:53:36;15.50;99.90
14182;DHT22;7171;50.936;6.764;2022-10-31T07:56:03;15.50;99.90
14182;DHT22;7171;50.936;6.764;2022-10-31T07:58:29;15.50;99.90
14182;DHT22;7171;50.936;6.764;2022-10-31T08:00:57;15.50;99.90
14182;DHT22;7171;50.936;6.764;2022-10-31T08:03:24;15.60;99.90
14182;DHT22;7171;50.936;6.764;2022-10-31T08:05:51;15.60;99.90
14182;DHT22;7171;50.936;6.764;2022-10-31T08:08:17;15.60;99.90
14182;DHT22;7171;50.936;6.764;2022-10-31T08:10:44;15.60;99.90
14182;DHT22;7171;50.936;6.764;2022-10-31T08:13:12;15.60;99.90
14182;DHT22;7171;50.936;6.764;2022-10-31T08:15:39;15.60;99.90
14182;DHT22;7171;50.936;6.764;2022-10-31T08:18:12;15.60;99.90
14182;DHT22;7171;50.936;6.764;2022-10-31T08:20:39;15.60;99.90
14182;DHT22;7171;50.936;6.764;2022-10-31T08:23:06;15.60;99.90
14182;DHT22;7171;50.936;6.764;2022-10-31T08:25:34;15.60;99.90
14182;DHT22;7171;50.936;6.764;2022-10-31T08:28:01;15.60;99.90
14182;DHT22;7171;50.936;6.764;2022-10-31T08:30:30;15.60;99.90
14182;DHT22;7171;50.936;6.764;2022-10-31T08:33:01;15.60;99.90
14182;DHT22;7171;50.936;6.764;2022-10-31T08:35:31;15.70;99.90
14182;DHT22;7171;50.936;6.764;2022-10-31T08:37:58;15.70;99.90
14182;DHT22;7171;50.936;6.764;2022-10-31T08:40:26;15.70;99.90
14182;DHT22;7171;50.936;6.764;2022-10-31T08:43:01;15.80;99.90
14182;DHT22;7171;50.936;6.764;2022-10-31T08:45:29;15.80;99.90
14182;DHT22;7171;50.936;6.764;2022-10-31T08:47:59;15.80;99.90
14182;DHT22;7171;50.936;6.764;2022-10-31T08:50:27;15.90;99.90
14182;DHT22;7171;50.936;6.764;2022-10-31T08:52:59;15.90;99.90
14182;DHT22;7171;50.936;6.764;2022-10-31T08:55:26;15.90;99.90
14182;DHT22;7171;50.936;6.764;2022-10-31T08:57:55;15.90;99.90
14182;DHT22;7171;50.936;6.764;2022-10-31T09:00:21;16.00;99.90
14182;DHT22;7171;50.936;6.764;2022-10-31T09:02:54;15.90;99.90
14182;DHT22;7171;50.936;6.764;2022-10-31T09:05:21;16.10;99.90
14182;DHT22;7171;50.936;6.764;2022-10-31T09:07:48;16.00;99.90
14182;DHT22;7171;50.936;6.764;2022-10-31T09:10:16;16.00;99.90
14182;DHT22;7171;50.936;6.764;2022-10-31T09:12:43;16.10;99.90
14182;DHT22;7171;50.936;6.764;2022-10-31T09:15:09;16.10;99.90
14182;DHT22;7171;50.936;6.764;2022-10-31T09:17:36;16.20;99.90
14182;DHT22;7171;50.936;6.764;2022-10-31T09:20:03;15.70;99.90
14182;DHT22;7171;50.936;6.764;2022-10-31T09:22:30;16.90;99.90
14182;DHT22;7171;50.936;6.764;2022-10-31T09:24:56;16.30;99.90
14182;DHT22;7171;50.936;6.764;2022-10-31T09:27:24;16.30;99.90
14182;DHT22;7171;50.936;6.764;2022-10-31T09:29:51;16.30;99.90
14182;DHT22;7171;50.936;6.764;2022-10-31T09:32:18;16.40;99.90
14182;DHT22;7171;50.936;6.764;2022-10-31T09:34:44;16.40;99.90
14182;DHT22;7171;50.936;6.764;2022-10-31T09:37:11;16.40;99.90
14182;DHT22;7171;50.936;6.764;2022-10-31T09:39:38;16.50;99.90
14182;DHT22;7171;50.936;6.764;2022-10-31T09:42:29;16.50;99.90
14182;DHT22;7171;50.936;6.764;2022-10-31T09:45:06;16.60;99.90
14182;DHT22;7171;50.936;6.764;2022-10-31T09:47:43;16.60;99.90
14182;DHT22;7171;50.936;6.764;2022-10-31T09:50:15;16.70;99.90
14182;DHT22;7171;50.936;6.764;2022-10-31T09:52:50;16.70;99.90
14182;DHT22;7171;50.936;6.764;2022-10-31T09:55:20;16.80;99.90
14182;DHT22;7171;50.936;6.764;2022-10-31T09:57:53;16.90;99.90
14182;DHT22;7171;50.936;6.764;2022-10-31T10:00:21;16.90;99.90
14182;DHT22;7171;50.936;6.764;2022-10-31T10:02:52;17.00;99.90
14182;DHT22;7171;50.936;6.764;2022-10-31T10:05:26;17.10;99.90
14182;DHT22;7171;50.936;6.764;2022-10-31T10:08:00;17.10;99.90
14182;DHT22;7171;50.936;6.764;2022-10-31T10:10:35;17.20;99.90
14182;DHT22;7171;50.936;6.764;2022-10-31T10:13:39;17.30;99.90
14182;DHT22;7171;50.936;6.764;2022-10-31T10:16:14;17.30;99.90
14182;DHT22;7171;50.936;6.764;2022-10-31T10:18:52;17.40;99.90
14182;DHT22;7171;50.936;6.764;2022-10-31T10:21:31;17.40;99.90
14182;DHT22;7171;50.936;6.764;2022-10-31T10:24:08;17.50;99.90
14182;DHT22;7171;50.936;6.764;2022-10-31T10:26:40;17.50;99.90
14182;DHT22;7171;50.936;6.764;2022-10-31T10:29:21;17.50;99.90
14182;DHT22;7171;50.936;6.764;2022-10-31T10:31:51;17.60;99.90
14182;DHT22;7171;50.936;6.764;2022-10-31T10:34:23;18.30;99.90
14182;DHT22;7171;50.936;6.764;2022-10-31T10:36:55;17.80;99.90
14182;DHT22;7171;50.936;6.764;2022-10-31T10:39:24;17.70;99.90
14182;DHT22;7171;50.936;6.764;2022-10-31T10:41:52;17.70;99.90
14182;DHT22;7171;50.936;6.764;2022-10-31T10:44:39;17.80;99.90
14182;DHT22;7171;50.936;6.764;2022-10-31T10:47:24;17.90;99.90
14182;DHT22;7171;50.936;6.764;2022-10-31T10:50:08;17.90;99.90
14182;DHT22;7171;50.936;6.764;2022-10-31T10:52:43;17.90;99.90
14182;DHT22;7171;50.936;6.764;2022-10-31T10:55:18;18.00;99.90
14182;DHT22;7171;50.936;6.764;2022-10-31T10:57:55;18.10;99.90
14182;DHT22;7171;50.936;6.764;2022-10-31T11:00:26;18.10;99.90
14182;DHT22;7171;50.936;6.764;2022-10-31T11:02:54;18.20;99.90
14182;DHT22;7171;50.936;6.764;2022-10-31T11:05:28;18.20;99.90
14182;DHT22;7171;50.936;6.764;2022-10-31T11:07:56;18.30;99.90
14182;DHT22;7171;50.936;6.764;2022-10-31T11:10:23;18.40;99.90
14182;DHT22;7171;50.936;6.764;2022-10-31T11:13:15;18.40;99.90
14182;DHT22;7171;50.936;6.764;2022-10-31T11:15:54;18.50;99.90
14182;DHT22;7171;50.936;6.764;2022-10-31T11:18:24;18.60;99.90
14182;DHT22;7171;50.936;6.764;2022-10-31T11:20:55;18.70;99.90
14182;DHT22;7171;50.936;6.764;2022-10-31T11:26:20;18.80;99.90
14182;DHT22;7171;50.936;6.764;2022-10-31T11:28:59;18.80;99.90
14182;DHT22;7171;50.936;6.764;2022-10-31T11:31:37;18.90;99.90
14182;DHT22;7171;50.936;6.764;2022-10-31T11:34:06;18.90;99.90
14182;DHT22;7171;50.936;6.764;2022-10-31T11:36:39;19.00;99.90
14182;DHT22;7171;50.936;6.764;2022-10-31T11:39:16;19.00;99.90
14182;DHT22;7171;50.936;6.764;2022-10-31T11:41:46;19.10;99.90
14182;DHT22;7171;50.936;6.764;2022-10-31T11:44:17;19.20;99.90
14182;DHT22;7171;50.936;6.764;2022-10-31T11:46:48;19.20;99.90
14182;DHT22;7171;50.936;6.764;2022-10-31T11:49:17;19.20;99.90
14182;DHT22;7171;50.936;6.764;2022-10-31T11:51:49;19.20;99.90
14182;DHT22;7171;50.936;6.764;2022-10-31T11:54:20;19.30;99.90
14182;DHT22;7171;50.936;6.764;2022-10-31T11:56:48;19.30;99.90
14182;DHT22;7171;50.936;6.764;2022-10-31T11:59:21;19.30;99.90
14182;DHT22;7171;50.936;6.764;2022-10-31T12:01:54;19.30;99.90
14182;DHT22;7171;50.936;6.764;2022-10-31T12:04:34;19.40;99.90
14182;DHT22;7171;50.936;6.764;2022-10-31T12:07:05;19.40;99.90
14182;DHT22;7171;50.936;6.764;2022-10-31T12:09:36;19.40;99.90
14182;DHT22;7171;50.936;6.764;2022-10-31T12:12:33;19.30;99.90
14182;DHT22;7171;50.936;6.764;2022-10-31T12:15:20;19.30;99.90
14182;DHT22;7171;50.936;6.764;2022-10-31T12:17:55;19.30;99.90
14182;DHT22;7171;50.936;6.764;2022-10-31T12:20:34;19.30;99.90
14182;DHT22;7171;50.936;6.764;2022-10-31T12:25:53;19.40;99.90
14182;DHT22;7171;50.936;6.764;2022-10-31T12:28:43;19.30;99.90
14182;DHT22;7171;50.936;6.764;2022-10-31T12:31:24;19.40;99.90
14182;DHT22;7171;50.936;6.764;2022-10-31T12:34:00;19.30;99.90
14182;DHT22;7171;50.936;6.764;2022-10-31T12:36:38;19.30;99.90
14182;DHT22;7171;50.936;6.764;2022-10-31T12:39:19;19.30;99.90
14182;DHT22;7171;50.936;6.764;2022-10-31T12:41:52;19.30;99.90
14182;DHT22;7171;50.936;6.764;2022-10-31T12:44:40;19.30;99.90
14182;DHT22;7171;50.936;6.764;2022-10-31T12:47:22;19.30;99.90
14182;DHT22;7171;50.936;6.764;2022-10-31T12:50:01;19.30;99.90
14182;DHT22;7171;50.936;6.764;2022-10-31T12:52:41;19.30;99.90
14182;DHT22;7171;50.936;6.764;2022-10-31T12:55:24;19.30;99.90
14182;DHT22;7171;50.936;6.764;2022-10-31T12:57:57;19.30;99.90
14182;DHT22;7171;50.936;6.764;2022-10-31T13:00:26;19.30;99.90
14182;DHT22;7171;50.936;6.764;2022-10-31T13:02:56;19.30;99.90
14182;DHT22;7171;50.936;6.764;2022-10-31T13:05:29;19.30;99.90
14182;DHT22;7171;50.936;6.764;2022-10-31T13:07:59;19.30;99.90
14182;DHT22;7171;50.936;6.764;2022-10-31T13:10:31;19.30;99.90
14182;DHT22;7171;50.936;6.764;2022-10-31T13:13:06;19.30;99.90
14182;DHT22;7171;50.936;6.764;2022-10-31T13:15:40;19.30;99.90
14182;DHT22;7171;50.936;6.764;2022-10-31T13:18:12;19.30;99.90
14182;DHT22;7171;50.936;6.764;2022-10-31T13:20:45;19.40;99.90
14182;DHT22;7171;50.936;6.764;2022-10-31T13:23:19;19.40;99.90
14182;DHT22;7171;50.936;6.764;2022-10-31T13:25:50;19.40;99.90
14182;DHT22;7171;50.936;6.764;2022-10-31T13:28:25;19.40;99.90
14182;DHT22;7171;50.936;6.764;2022-10-31T13:30:54;19.50;99.90
14182;DHT22;7171;50.936;6.764;2022-10-31T13:33:24;19.50;99.90
14182;DHT22;7171;50.936;6.764;2022-10-31T13:36:04;19.60;99.90
14182;DHT22;7171;50.936;6.764;2022-10-31T13:38:36;19.60;99.90
14182;DHT22;7171;50.936;6.764;2022-10-31T13:41:10;19.60;99.90
14182;DHT22;7171;50.936;6.764;2022-10-31T13:43:56;19.50;99.90
14182;DHT22;7171;50.936;6.764;2022-10-31T13:46:35;19.70;99.90
14182;DHT22;7171;50.936;6.764;2022-10-31T13:49:02;19.70;99.90
14182;DHT22;7171;50.936;6.764;2022-10-31T13:51:31;19.70;99.90
14182;DHT22;7171;50.936;6.764;2022-10-31T13:54:01;19.70;99.90
14182;DHT22;7171;50.936;6.764;2022-10-31T13:56:29;19.70;99.90
14182;DHT22;7171;50.936;6.764;2022-10-31T13:59:00;19.70;99.90
14182;DHT22;7171;50.936;6.764;2022-10-31T14:01:28;19.70;99.90
14182;DHT22;7171;50.936;6.764;2022-10-31T14:04:04;19.70;99.90
14182;DHT22;7171;50.936;6.764;2022-10-31T14:06:38;19.70;99.90
14182;DHT22;7171;50.936;6.764;2022-10-31T14:09:14;19.60;99.90
14182;DHT22;7171;50.936;6.764;2022-10-31T14:11:45;19.60;99.90
14182;DHT22;7171;50.936;6.764;2022-10-31T14:14:13;19.60;99.90
14182;DHT22;7171;50.936;6.764;2022-10-31T14:16:43;19.60;99.90
14182;DHT22;7171;50.936;6.764;2022-10-31T14:19:15;19.60;99.90
14182;DHT22;7171;50.936;6.764;2022-10-31T14:21:45;19.60;99.90
14182;DHT22;7171;50.936;6.764;2022-10-31T14:24:31;19.60;99.90
14182;DHT22;7171;50.936;6.764;2022-10-31T14:27:00;19.30;99.90
14182;DHT22;7171;50.936;6.764;2022-10-31T14:29:28;19.40;99.90
14182;DHT22;7171;50.936;6.764;2022-10-31T14:32:02;19.50;99.90
14182;DHT22;7171;50.936;6.764;2022-10-31T14:34:38;19.50;99.90
14182;DHT22;7171;50.936;6.764;2022-10-31T14:37:30;19.40;99.90
14182;DHT22;7171;50.936;6.764;2022-10-31T14:40:17;19.40;99.90
14182;DHT22;7171;50.936;6.764;2022-10-31T14:43:23;19.40;99.90
14182;DHT22;7171;50.936;6.764;2022-10-31T14:46:00;19.40;99.90
14182;DHT22;7171;50.936;6.764;2022-10-31T14:48:47;19.40;99.90
14182;DHT22;7171;50.936;6.764;2022-10-31T14:51:20;19.30;99.90
14182;DHT22;7171;50.936;6.764;2022-10-31T14:53:50;19.30;99.90
14182;DHT22;7171;50.936;6.764;2022-10-31T14:56:21;19.30;99.90
14182;DHT22;7171;50.936;6.764;2022-10-31T14:58:49;19.30;99.90
14182;DHT22;7171;50.936;6.764;2022-10-31T15:01:21;19.30;99.90
14182;DHT22;7171;50.936;6.764;2022-10-31T15:03:48;19.40;99.90
14182;DHT22;7171;50.936;6.764;2022-10-31T15:06:17;19.40;99.90
14182;DHT22;7171;50.936;6.764;2022-10-31T15:08:46;19.40;99.90
14182;DHT22;7171;50.936;6.764;2022-10-31T15:11:15;19.40;99.90
14182;DHT22;7171;50.936;6.764;2022-10-31T15:13:44;19.40;99.90
14182;DHT22;7171;50.936;6.764;2022-10-31T15:16:12;19.40;99.90
14182;DHT22;7171;50.936;6.764;2022-10-31T15:18:54;19.40;99.90
14182;DHT22;7171;50.936;6.764;2022-10-31T15:21:24;19.40;99.90
14182;DHT22;7171;50.936;6.764;2022-10-31T15:23:55;19.40;99.90
14182;DHT22;7171;50.936;6.764;2022-10-31T15:26:26;19.30;99.90
14182;DHT22;7171;50.936;6.764;2022-10-31T15:29:01;19.40;99.90
14182;DHT22;7171;50.936;6.764;2022-10-31T15:31:29;19.30;99.90
14182;DHT22;7171;50.936;6.764;2022-10-31T15:34:01;19.30;99.90
14182;DHT22;7171;50.936;6.764;2022-10-31T15:36:28;19.30;99.90
14182;DHT22;7171;50.936;6.764;2022-10-31T15:38:56;19.30;99.90
14182;DHT22;7171;50.936;6.764;2022-10-31T15:41:38;19.30;99.90
14182;DHT22;7171;50.936;6.764;2022-10-31T15:44:12;19.30;99.90
14182;DHT22;7171;50.936;6.764;2022-10-31T15:46:41;19.30;99.90
14182;DHT22;7171;50.936;6.764;2022-10-31T15:49:23;19.30;99.90
14182;DHT22;7171;50.936;6.764;2022-10-31T15:51:52;19.30;99.90
14182;DHT22;7171;50.936;6.764;2022-10-31T15:54:19;19.30;99.90
14182;DHT22;7171;50.936;6.764;2022-10-31T15:56:48;19.30;99.90
14182;DHT22;7171;50.936;6.764;2022-10-31T15:59:20;19.30;99.90
14182;DHT22;7171;50.936;6.764;2022-10-31T16:02:00;19.20;99.90
14182;DHT22;7171;50.936;6.764;2022-10-31T16:04:28;19.20;99.90
14182;DHT22;7171;50.936;6.764;2022-10-31T16:07:01;19.20;99.90
14182;DHT22;7171;50.936;6.764;2022-10-31T16:09:29;19.20;99.90
14182;DHT22;7171;50.936;6.764;2022-10-31T16:11:57;19.20;99.90
14182;DHT22;7171;50.936;6.764;2022-10-31T16:14:27;19.10;99.90